createdAt,value
2022-11-05T00:02:29.376Z,3.80
2022-11-05T00:05:18.075Z,3.33
2022-11-05T00:08:13.966Z,3.23
2022-11-05T00:10:46.697Z,3.20
2022-11-05T00:13:42.833Z,3.00
2022-11-05T00:16:32.036Z,3.17
2022-11-05T00:22:09.062Z,2.90
2022-11-05T00:24:59.430Z,2.80
2022-11-05T00:28:05.041Z,3.43
2022-11-05T00:30:33.878Z,2.97
2022-11-05T00:33:05.216Z,3.03
2022-11-05T00:35:35.002Z,3.03
2022-11-05T00:38:07.428Z,2.67
2022-11-05T00:40:44.055Z,2.57
2022-11-05T00:43:33.141Z,2.63
2022-11-05T00:46:02.498Z,2.27
2022-11-05T00:48:49.519Z,3.40
2022-11-05T00:51:18.047Z,2.30
2022-11-05T00:53:51.262Z,2.23
2022-11-05T00:56:25.996Z,2.27
2022-11-05T00:58:59.953Z,3.27
2022-11-05T01:06:51.118Z,2.97
2022-11-05T01:09:23.018Z,3.30
2022-11-05T01:11:56.140Z,3.40
2022-11-05T01:14:28.414Z,3.73
2022-11-05T01:16:59.879Z,3.73
2022-11-05T01:27:50.731Z,3.60
2022-11-05T01:30:21.655Z,3.20
2022-11-05T01:36:10.195Z,3.00
2022-11-05T01:41:34.056Z,2.80
2022-11-05T01:44:22.308Z,2.80
2022-11-05T01:47:00.143Z,3.80
2022-11-05T01:49:36.068Z,3.50
2022-11-05T01:52:16.815Z,3.50
2022-11-05T01:54:48.723Z,3.50
2022-11-05T01:57:20.874Z,3.77
2022-11-05T01:59:56.827Z,3.47
2022-11-05T02:02:32.240Z,3.97
2022-11-05T02:05:07.443Z,3.67
2022-11-05T02:07:39.789Z,3.87
2022-11-05T02:10:18.791Z,3.40
2022-11-05T02:16:23.904Z,3.33
2022-11-05T02:19:24.883Z,3.83
2022-11-05T02:22:16.870Z,3.47
2022-11-05T02:28:29.454Z,3.43
2022-11-05T02:31:09.893Z,2.60
2022-11-05T02:34:03.627Z,2.70
2022-11-05T02:39:41.040Z,2.87
2022-11-05T02:43:04.640Z,2.87
2022-11-05T02:46:05.333Z,2.70
2022-11-05T02:49:11.862Z,2.77
2022-11-05T02:54:56.756Z,2.77
2022-11-05T03:00:04.354Z,3.13
2022-11-05T03:02:36.617Z,3.53
2022-11-05T03:05:13.926Z,3.47
2022-11-05T03:07:51.219Z,3.43
2022-11-05T03:10:53.002Z,3.53
2022-11-05T03:13:25.693Z,3.50
2022-11-05T03:16:05.055Z,3.60
2022-11-05T03:18:44.945Z,3.43
2022-11-05T03:21:19.235Z,4.27
2022-11-05T03:24:01.041Z,4.17
2022-11-05T03:26:46.822Z,4.40
2022-11-05T03:29:31.470Z,4.10
2022-11-05T03:32:04.933Z,3.90
2022-11-05T03:34:41.547Z,4.30
2022-11-05T03:37:14.393Z,4.30
2022-11-05T03:39:52.280Z,4.40
2022-11-05T03:42:28.149Z,3.67
2022-11-05T03:45:07.746Z,4.03
2022-11-05T03:47:42.637Z,4.03
2022-11-05T03:50:20.100Z,3.73
2022-11-05T03:52:57.091Z,3.67
2022-11-05T03:55:44.642Z,3.43
2022-11-05T03:58:15.411Z,4.60
2022-11-05T04:00:46.079Z,3.93
2022-11-05T04:03:15.618Z,4.13
2022-11-05T04:06:05.277Z,4.07
2022-11-05T04:08:55.038Z,5.03
2022-11-05T04:14:47.049Z,4.20
2022-11-05T04:17:26.480Z,4.77
2022-11-05T04:20:15.036Z,5.67
2022-11-05T04:25:56.044Z,4.37
2022-11-05T04:28:48.435Z,3.97
2022-11-05T04:31:19.093Z,4.47
2022-11-05T04:33:51.905Z,4.87
2022-11-05T04:36:22.030Z,4.40
2022-11-05T04:38:53.574Z,4.53
2022-11-05T04:41:23.068Z,4.60
2022-11-05T04:49:55.123Z,4.97
2022-11-05T04:52:25.339Z,4.77
2022-11-05T04:54:55.324Z,5.13
2022-11-05T04:57:26.132Z,4.93
2022-11-05T04:59:55.957Z,4.17
2022-11-05T05:02:26.704Z,4.60
2022-11-05T05:04:56.784Z,4.73
2022-11-05T05:07:27.089Z,4.70
2022-11-05T05:12:50.918Z,4.17
2022-11-05T05:15:23.058Z,4.50
2022-11-05T05:17:54.801Z,4.27
2022-11-05T05:20:41.945Z,4.23
2022-11-05T05:23:13.771Z,4.60
2022-11-05T05:25:46.257Z,4.20
2022-11-05T05:28:30.135Z,4.50
2022-11-05T05:31:01.879Z,3.77
2022-11-05T05:33:32.006Z,3.63
2022-11-05T05:36:04.667Z,4.17
2022-11-05T05:38:37.295Z,3.53
2022-11-05T05:41:05.426Z,3.73
2022-11-05T05:43:35.167Z,3.67
2022-11-05T05:46:09.411Z,3.60
2022-11-05T05:48:38.664Z,3.97
2022-11-05T05:51:10.159Z,4.23
2022-11-05T05:53:42.137Z,3.40
2022-11-05T05:56:12.194Z,3.43
2022-11-05T05:58:40.877Z,3.10
2022-11-05T06:01:18.377Z,4.00
2022-11-05T06:03:47.812Z,3.37
2022-11-05T06:06:23.881Z,3.60
2022-11-05T06:08:53.972Z,3.07
2022-11-05T06:11:24.537Z,3.00
2022-11-05T06:13:54.766Z,3.67
2022-11-05T06:19:33.285Z,3.27
2022-11-05T06:22:04.114Z,3.13
2022-11-05T06:24:34.789Z,3.40
2022-11-05T06:27:07.200Z,2.83
2022-11-05T06:29:37.207Z,3.03
2022-11-05T06:32:07.404Z,3.03
2022-11-05T06:34:39.868Z,2.50
2022-11-05T06:37:10.338Z,3.13
2022-11-05T06:39:42.220Z,2.90
2022-11-05T06:42:25.510Z,3.17
2022-11-05T06:44:56.170Z,3.23
2022-11-05T06:47:29.107Z,3.30
2022-11-05T06:50:02.441Z,3.23
2022-11-05T06:53:20.775Z,3.70
2022-11-05T06:55:58.250Z,2.97
2022-11-05T06:58:32.635Z,3.40
2022-11-05T07:01:08.370Z,3.20
2022-11-05T07:03:38.000Z,2.60
2022-11-05T07:06:18.837Z,3.03
2022-11-05T07:08:55.067Z,2.80
2022-11-05T07:14:14.349Z,3.40
2022-11-05T07:16:47.371Z,2.33
2022-11-05T07:19:18.831Z,3.10
2022-11-05T07:22:10.648Z,3.03
2022-11-05T07:24:44.982Z,3.00
2022-11-05T07:27:24.543Z,2.90
2022-11-05T07:29:55.202Z,2.87
2022-11-05T07:35:22.072Z,2.60
2022-11-05T07:37:55.529Z,3.00
2022-11-05T07:40:39.381Z,3.13
2022-11-05T07:43:10.947Z,2.60
2022-11-05T07:45:46.035Z,2.87
2022-11-05T07:48:15.475Z,2.47
2022-11-05T07:50:48.495Z,2.70
2022-11-05T07:53:23.561Z,3.07
2022-11-05T08:01:34.764Z,2.43
2022-11-05T08:04:20.383Z,2.67
2022-11-05T08:06:50.056Z,2.63
2022-11-05T08:09:27.612Z,2.37
2022-11-05T08:12:02.671Z,2.47
2022-11-05T08:14:44.045Z,2.63
2022-11-05T08:17:18.220Z,2.43
2022-11-05T08:19:48.435Z,2.53
2022-11-05T08:22:23.576Z,2.53
2022-11-05T08:24:53.850Z,2.40
2022-11-05T08:27:35.864Z,3.27
2022-11-05T08:30:13.198Z,2.13
2022-11-05T08:32:42.350Z,2.73
2022-11-05T08:35:10.019Z,2.50
2022-11-05T08:37:39.756Z,3.20
2022-11-05T08:40:36.795Z,2.27
2022-11-05T08:43:10.803Z,2.53
2022-11-05T08:45:39.795Z,2.43
2022-11-05T08:48:37.525Z,2.60
2022-11-05T08:51:04.746Z,2.27
2022-11-05T08:53:36.179Z,2.30
2022-11-05T08:56:05.949Z,2.33
2022-11-05T08:58:37.834Z,2.90
2022-11-05T09:01:16.347Z,1.87
2022-11-05T09:03:47.580Z,2.23
2022-11-05T09:09:00.958Z,2.63
2022-11-05T09:11:49.551Z,2.70
2022-11-05T09:14:18.309Z,2.10
2022-11-05T09:16:49.121Z,2.30
2022-11-05T09:19:18.474Z,2.73
2022-11-05T09:21:52.113Z,2.47
2022-11-05T09:24:26.294Z,2.43
2022-11-05T09:26:55.629Z,3.10
2022-11-05T09:29:23.655Z,2.27
2022-11-05T09:32:15.079Z,2.30
2022-11-05T09:34:50.792Z,1.90
2022-11-05T09:37:17.411Z,2.30
2022-11-05T09:39:44.666Z,2.37
2022-11-05T09:42:16.176Z,2.47
2022-11-05T09:44:48.289Z,2.13
2022-11-05T09:47:38.553Z,2.33
2022-11-05T09:50:15.436Z,2.10
2022-11-05T09:52:42.202Z,2.33
2022-11-05T09:55:30.886Z,2.37
2022-11-05T09:58:03.609Z,3.00
2022-11-05T10:00:32.155Z,2.30
2022-11-05T10:03:04.451Z,1.90
2022-11-05T10:05:34.047Z,2.10
2022-11-05T10:08:27.494Z,1.90
2022-11-05T10:10:59.185Z,1.70
2022-11-05T10:13:35.004Z,2.10
2022-11-05T10:16:04.219Z,2.20
2022-11-05T10:18:41.349Z,1.87
2022-11-05T10:21:16.736Z,1.87
2022-11-05T10:23:45.040Z,2.10
2022-11-05T10:26:16.106Z,1.90
2022-11-05T10:28:42.998Z,2.10
2022-11-05T10:31:16.618Z,2.43
2022-11-05T10:34:01.488Z,2.20
2022-11-05T10:36:32.719Z,2.10
2022-11-05T10:39:27.969Z,2.27
2022-11-05T10:42:26.012Z,1.83
2022-11-05T10:45:37.108Z,1.70
2022-11-05T10:48:43.673Z,2.13
2022-11-05T10:51:11.239Z,1.90
2022-11-05T10:53:39.722Z,2.03
2022-11-05T10:56:36.781Z,2.10
2022-11-05T10:59:10.940Z,1.90
2022-11-05T11:01:39.410Z,2.27
2022-11-05T11:04:17.587Z,1.83
2022-11-05T11:06:49.863Z,2.57
2022-11-05T11:09:24.722Z,1.97
2022-11-05T11:12:07.445Z,2.10
2022-11-05T11:15:02.269Z,2.13
2022-11-05T11:17:31.674Z,2.20
2022-11-05T11:20:26.033Z,1.80
2022-11-05T11:23:15.278Z,2.00
2022-11-05T11:26:01.809Z,1.77
2022-11-05T11:28:54.491Z,1.90
2022-11-05T11:31:23.764Z,1.90
2022-11-05T11:34:03.589Z,1.77
2022-11-05T11:36:44.625Z,1.90
2022-11-05T11:39:18.462Z,1.83
2022-11-05T11:41:49.785Z,1.97
2022-11-05T11:44:21.015Z,1.77
2022-11-05T11:46:54.130Z,1.77
2022-11-05T11:49:49.290Z,2.03
2022-11-05T11:52:21.365Z,1.83
2022-11-05T11:54:48.384Z,1.47
2022-11-05T11:57:26.393Z,2.03
2022-11-05T12:00:11.537Z,1.80
2022-11-05T12:03:17.354Z,1.80
2022-11-05T12:06:05.760Z,1.53
2022-11-05T12:08:59.299Z,2.17
2022-11-05T12:12:10.314Z,1.73
2022-11-05T12:14:56.655Z,1.77
2022-11-05T12:17:38.430Z,2.07
2022-11-05T12:20:34.137Z,2.10
2022-11-05T12:23:35.771Z,1.77
2022-11-05T12:26:11.785Z,2.10
2022-11-05T12:28:57.755Z,1.60
2022-11-05T12:32:02.971Z,1.57
2022-11-05T12:34:30.064Z,1.77
2022-11-05T12:41:19.685Z,1.70
2022-11-05T12:44:04.084Z,1.93
2022-11-05T12:47:15.444Z,1.70
2022-11-05T12:50:00.938Z,2.23
2022-11-05T12:52:41.097Z,2.30
2022-11-05T12:55:40.107Z,1.80
2022-11-05T12:58:18.942Z,1.67
2022-11-05T13:00:51.827Z,2.07
2022-11-05T13:03:32.606Z,1.93
2022-11-05T13:06:07.515Z,1.80
2022-11-05T13:08:45.072Z,1.63
2022-11-05T13:11:20.037Z,1.90
2022-11-05T13:13:59.786Z,1.90
2022-11-05T13:16:36.208Z,1.70
2022-11-05T13:19:15.125Z,2.00
2022-11-05T13:21:55.975Z,1.90
2022-11-05T13:24:35.039Z,1.83
2022-11-05T13:27:29.950Z,1.83
2022-11-05T13:30:03.029Z,1.80
2022-11-05T13:32:34.819Z,1.93
2022-11-05T13:35:04.985Z,1.97
2022-11-05T13:37:55.379Z,1.80
2022-11-05T13:40:46.822Z,2.17
2022-11-05T13:43:50.823Z,2.20
2022-11-05T13:46:40.618Z,2.13
2022-11-05T13:49:13.532Z,2.20
2022-11-05T13:51:51.337Z,1.90
2022-11-05T13:55:00.762Z,1.80
2022-11-05T13:58:08.291Z,1.80
2022-11-05T14:01:01.220Z,1.87
2022-11-05T14:03:29.742Z,2.07
2022-11-05T14:06:04.933Z,2.00
2022-11-05T14:08:45.846Z,2.10
2022-11-05T14:11:24.249Z,2.20
2022-11-05T14:13:56.987Z,2.43
2022-11-05T14:16:39.946Z,2.30
2022-11-05T14:19:19.487Z,2.13
2022-11-05T14:21:52.419Z,2.10
2022-11-05T14:24:27.612Z,2.13
2022-11-05T14:27:03.260Z,2.00
2022-11-05T14:29:52.429Z,2.20
2022-11-05T14:32:20.034Z,2.03
2022-11-05T14:35:20.447Z,2.13
2022-11-05T14:37:59.644Z,2.10
2022-11-05T14:41:10.952Z,1.87
2022-11-05T15:08:00.090Z,2.30
2022-11-05T15:10:34.706Z,2.70
2022-11-05T15:15:48.256Z,2.77
2022-11-05T15:18:23.325Z,2.67
2022-11-05T17:19:53.732Z,3.50
2022-11-05T17:22:22.777Z,3.33
2022-11-05T20:57:19.078Z,6.97
2022-11-05T21:37:30.409Z,6.37
